Accueil
METAR-TAF:

METAR-TAF

Aéroports :

Aéroport international de Rabat-Salé

Rabat, Maroc

latitude: 34-03N, longitude: 006-46W, altitude: 84 m

Observation

Le bulletin a été fait il y a 11 minutes, à 15:00 UTC
Vent 9 kt de ouest/nord-ouest
Température 27°C
Humidité 58%
Pression 1015 hPa
Visibilité: 8000 m

METAR: GMME 031500Z 29009KT 8000 NSC 27/18 Q1015 NOSIG

Heure: 16:11 (15:11 UTC)

Prévision

Le bulletin a été fait il y a 4 heures et 11 minutes, à 11:00 UTC
Prévision valable du 03 à 12 UTC au 04 à 18 UTC
Vent 10 kt de ouest/sud-ouest
Visibilité: 8000 m
Temporairement
du 03 à 14 UTC au 03 à 18 UTC
Vent 8 kt de nord-ouest
Nuages épars à une hauteur de 2000 ft

TAF: GMME 031100Z 0312/0418 24010KT 8000 NSC TEMPO 0314/0318 32008KT SCT020

Observations et prévisions météorologiques de plus de 4000 aéroports (messages METAR et TAF).

Les stations disponibles sont représentées par des disques jaunes et rouges sur la carte.

Passer la souris dessus pour voir le nom de la station.

Cliquer dessus pour voir les observations et prévisions météorologiques.

Pour changer de carte: cliquez sur les boutons verts avec une croix noire pour zoomer, sur le bouton vert avec un tiret pour effectuer un zoom arrière, ou sur les flèches vertes pour les cartes adjacentes.


METAR-TAF: